Bradley International Airport
KBDL : now visible

Airfield :











YOU CAN JOIN US ON...

 
LOGIN :

Register | Disclaimer

   EN    FR    IT 

 









Legend :    VFR   Marginal VFR   IFR   Intensive IFR   Very Intensive IFR
Visi :
Ceiling :
>= 8 km
>= 3000ft
5 to 8 km
1000 to 3000 ft
1500m to 5 km
500 to 1000 ft
800 to 1500m
200 to 500 ft
< 800m
< 200 ft
Symbols :   Thunderstorms  Fog  Heavy snow  Heavy precipitations  Wind > 20 kt






- Airport Elevation : 173 ft
- IATA code : BDL


KBDL - Bradley International

CURRENT METAR :
  • 111051Z 19014KT 10SM SCT021 BKN027 OVC034 23/21 A2968 RMK AO2 SLP049 T02330211 $

EXPIRED METARs :
  • 110951Z 18014G20KT 10SM OVC015 23/21 A2966 RMK AO2 RAE09B40E47DZB09E40 SLP044 P0000 T02280211 $
  • 110851Z 17013KT 6SM -RA OVC011 22/21 A2966 RMK AO2 RAE34B50DZB34E50 SLP042 PCPN VRY LGT P0001 60005 T02220211 56013

TAF KBDL
Valid from the 11 at 08:00 until the 12 at 12:00 UTC


110819Z 1108/1212 16013G20KT P6SM BKN015
FM111200 18014KT P6SM BKN025
FM111400 19011G22KT P6SM BKN050
FM111900 18012G25KT P6SM VCSH BKN050
KZBW FIR / North America



MET'MAP, your aeronautical weather chart ! - Copyright ORBIFLY December 2007 - Disclaimer

ORBIFLY MET'MAP TEAM :

Programming & Development : Alexandra Zaïnal
Concept & original design : Baudouin d'Aumeries
Assistance for programming : Marc-Olivier Méhu
Technical & hardware support : Manuel Goepfert

Contact : metmap@orbifly.com




SOURCES & CREDITS :

   NOAA       Earth
Advisory